Time;durP1;ratioP1;P1;durP2;ratioP2;P2;SDS_P1;SDS_P2;PMS_P1;PMS_P2;Temp;Humidity;BMP_temperature;BMP_pressure;BME280_temperature;BME280_humidity;BME280_pressure;Samples;Min_cycle;Max_cycle;Signal;HPM_P1;HPM_P2
2021/06/12 00:01:25;;;;;;;10.67;9.57;;;;;;;22.46;54.44;96916.47;5053779;28;20316;-69
2021/06/12 00:03:50;;;;;;;13.00;10.17;;;;;;;22.46;54.42;96916.47;5054028;28;20352;-69
2021/06/12 00:06:16;;;;;;;11.07;10.07;;;;;;;22.44;54.44;96925.75;5052166;28;20178;-67
2021/06/12 00:08:41;;;;;;;10.20;9.40;;;;;;;22.23;55.18;96927.97;5048600;28;20538;-67
2021/06/12 00:11:07;;;;;;;10.97;9.87;;;;;;;22.09;55.55;96917.53;5054319;28;20202;-68
2021/06/12 00:13:33;;;;;;;11.60;9.60;;;;;;;22.08;55.51;96917.75;5048658;28;20382;-68
2021/06/12 00:15:58;;;;;;;10.30;9.40;;;;;;;22.14;55.18;96919.50;5045117;28;20203;-67
2021/06/12 00:18:24;;;;;;;10.60;9.70;;;;;;;22.12;54.87;96918.94;5053422;28;20849;-67
2021/06/12 00:20:55;;;;;;;14.87;10.17;;;;;;;22.18;54.73;96919.84;5051138;28;20183;-67
2021/06/12 00:23:21;;;;;;;10.17;9.30;;;;;;;22.25;54.53;96926.69;5052600;28;20277;-67
2021/06/12 00:25:46;;;;;;;11.30;10.20;;;;;;;22.27;54.11;96930.97;5053478;28;20497;-67
2021/06/12 00:28:12;;;;;;;11.17;9.93;;;;;;;22.24;54.34;96927.72;5053260;28;20248;-68
2021/06/12 00:30:38;;;;;;;11.00;9.80;;;;;;;22.16;54.43;96916.59;5052783;28;20587;-69
2021/06/12 00:33:04;;;;;;;10.60;9.70;;;;;;;22.15;54.54;96922.97;5052917;28;20214;-69
2021/06/12 00:35:29;;;;;;;12.43;10.00;;;;;;;22.13;54.72;96922.41;5052208;28;20205;-68
2021/06/12 00:37:55;;;;;;;10.70;9.60;;;;;;;22.11;54.72;96921.84;5052874;28;20937;-68
2021/06/12 00:40:22;;;;;;;13.03;9.80;;;;;;;22.08;54.75;96917.75;5051545;28;20562;-67
2021/06/12 00:42:47;;;;;;;10.70;9.77;;;;;;;21.97;54.89;96916.75;5048459;28;20717;-67
2021/06/12 00:45:18;;;;;;;11.17;10.17;;;;;;;21.88;55.57;96910.94;5052776;28;20456;-67
2021/06/12 00:47:45;;;;;;;10.80;9.80;;;;;;;21.85;55.21;96906.06;5053343;28;20528;-67
2021/06/12 00:50:11;;;;;;;11.23;10.10;;;;;;;21.84;55.32;96907.09;5051284;28;20462;-67
2021/06/12 00:52:37;;;;;;;12.90;9.80;;;;;;;21.83;55.00;96904.69;5052454;28;20424;-67
2021/06/12 00:55:06;;;;;;;11.07;10.07;;;;;;;21.84;55.41;96898.31;5050630;28;20441;-67
2021/06/12 00:57:33;;;;;;;10.73;9.73;;;;;;;21.81;55.43;96893.44;5053339;28;20517;-67
2021/06/12 01:00:00;;;;;;;12.40;9.50;;;;;;;21.81;55.35;96902.22;5051957;28;20828;-68
2021/06/12 01:02:26;;;;;;;11.87;10.77;;;;;;;21.66;55.79;96897.34;5033972;28;20477;-68
2021/06/12 01:04:51;;;;;;;16.17;10.23;;;;;;;21.66;55.37;96900.03;5047996;28;20446;-69
2021/06/12 01:07:17;;;;;;;13.87;10.60;;;;;;;21.69;55.14;96898.75;5052107;28;20236;-68
2021/06/12 01:09:42;;;;;;;11.10;10.10;;;;;;;21.72;55.58;96892.94;5052032;28;20199;-68
2021/06/12 01:12:37;;;;;;;11.43;10.00;;;;;;;21.70;55.43;96889.69;5048226;28;20647;-68
2021/06/12 01:15:05;;;;;;;11.77;10.60;;;;;;;21.68;55.36;96889.94;5047959;28;20219;-68
2021/06/12 01:17:35;;;;;;;11.10;9.97;;;;;;;21.67;55.31;96888.31;5052035;28;20421;-68
2021/06/12 01:20:10;;;;;;;11.20;10.17;;;;;;;21.66;55.39;96888.56;5051039;28;20414;-68
2021/06/12 01:22:45;;;;;;;10.93;9.90;;;;;;;21.66;55.37;96891.22;5040501;28;20900;-68
2021/06/12 01:25:41;;;;;;;10.63;9.47;;;;;;;21.65;55.61;96885.06;5051494;28;20541;-69
2021/06/12 01:28:40;;;;;;;10.80;10.00;;;;;;;21.52;55.76;96890.59;5033890;28;20503;-68
2021/06/12 01:31:07;;;;;;;10.37;9.37;;;;;;;21.43;55.56;96876.78;5041379;28;21021;-68
2021/06/12 01:33:33;;;;;;;12.30;10.03;;;;;;;21.31;55.68;96884.78;5050172;28;20453;-68
2021/06/12 01:36:04;;;;;;;14.77;10.07;;;;;;;21.25;56.11;96885.69;5050907;28;20436;-68
2021/06/12 01:38:34;;;;;;;12.93;10.10;;;;;;;21.15;56.38;96888.91;5051482;28;20429;-68
2021/06/12 01:41:02;;;;;;;11.40;10.27;;;;;;;20.93;56.91;96878.75;5050320;28;20440;-68
2021/06/12 01:43:30;;;;;;;10.63;9.73;;;;;;;20.91;57.47;96880.88;5047387;28;20445;-68
2021/06/12 01:45:56;;;;;;;12.23;9.80;;;;;;;20.91;57.38;96883.53;5050875;28;20783;-68
2021/06/12 01:48:22;;;;;;;10.90;9.83;;;;;;;20.87;57.18;96885.81;5047193;28;20426;-67
2021/06/12 01:50:49;;;;;;;14.97;9.43;;;;;;;21.23;56.16;96885.13;5045893;28;20718;-67
2021/06/12 01:53:20;;;;;;;11.13;10.23;;;;;;;21.06;56.90;96883.09;5050964;28;20453;-68
2021/06/12 01:55:47;;;;;;;11.27;10.20;;;;;;;21.29;55.90;96881.53;5050084;28;20429;-68
2021/06/12 01:58:19;;;;;;;15.20;9.53;;;;;;;21.46;55.40;96882.50;5050088;28;20448;-68
2021/06/12 02:00:45;;;;;;;9.97;9.10;;;;;;;21.29;56.19;96876.19;5051387;28;20486;-67
2021/06/12 02:03:11;;;;;;;12.67;9.50;;;;;;;21.49;55.43;96874.00;5049783;28;20452;-68
2021/06/12 02:05:37;;;;;;;11.37;9.90;;;;;;;21.50;55.29;96872.16;5050169;28;20456;-68
2021/06/12 02:08:04;;;;;;;12.63;9.30;;;;;;;21.51;55.20;96878.28;5049594;28;20559;-68
2021/06/12 02:10:31;;;;;;;18.47;9.50;;;;;;;21.49;54.83;96882.00;5032645;28;20461;-69
2021/06/12 02:12:56;;;;;;;11.97;9.07;;;;;;;21.17;55.80;96876.97;5046567;28;20472;-69
2021/06/12 02:15:24;;;;;;;10.90;9.10;;;;;;;21.12;56.00;96876.84;5040097;28;20446;-67
2021/06/12 02:17:52;;;;;;;10.23;9.37;;;;;;;21.07;56.08;96881.22;5050065;28;20191;-68
2021/06/12 02:20:19;;;;;;;10.30;9.40;;;;;;;21.18;56.06;96885.78;5051067;28;20433;-67
2021/06/12 02:22:52;;;;;;;9.73;8.77;;;;;;;21.00;56.35;96882.16;5045877;28;20771;-69
2021/06/12 02:25:19;;;;;;;15.40;10.03;;;;;;;21.03;56.38;96883.53;5049447;28;20762;-68
2021/06/12 02:27:47;;;;;;;11.10;10.00;;;;;;;21.05;56.42;96885.97;5048558;28;20430;-68
2021/06/12 02:30:13;;;;;;;12.97;10.93;;;;;;;20.96;56.93;96880.97;5049450;28;20514;-68
2021/06/12 02:32:42;;;;;;;11.23;10.13;;;;;;;20.98;56.96;96870.91;5049917;28;20451;-68
2021/06/12 02:35:08;;;;;;;11.33;10.30;;;;;;;20.99;56.93;96872.53;5050144;28;20863;-68
2021/06/12 02:37:38;;;;;;;10.87;9.97;;;;;;;21.24;55.92;96868.06;5050997;28;20752;-68
2021/06/12 02:40:05;;;;;;;10.43;8.47;;;;;;;21.10;56.20;96873.63;5050914;28;20878;-68
2021/06/12 02:42:30;;;;;;;9.90;8.93;;;;;;;20.95;56.48;96871.34;5047816;28;20483;-68
2021/06/12 02:44:56;;;;;;;10.40;9.40;;;;;;;20.97;56.42;96869.28;5050542;28;20449;-68
2021/06/12 02:47:22;;;;;;;10.63;9.63;;;;;;;20.91;56.78;96874.72;5038555;28;20188;-68
2021/06/12 02:49:48;;;;;;;10.37;9.37;;;;;;;20.87;56.89;96871.69;5043280;28;20203;-68
2021/06/12 02:52:21;;;;;;;9.60;8.70;;;;;;;20.60;57.83;96880.00;5042949;28;20426;-69
2021/06/12 02:54:48;;;;;;;9.77;8.97;;;;;;;20.76;57.28;96880.44;5049529;28;20226;-69
2021/06/12 02:57:14;;;;;;;10.07;9.07;;;;;;;20.83;57.07;96878.50;5049716;28;20861;-68
2021/06/12 02:59:43;;;;;;;10.43;9.63;;;;;;;20.83;56.89;96883.81;5049846;28;20513;-68
2021/06/12 03:02:10;;;;;;;10.83;9.83;;;;;;;20.72;57.16;96888.84;5050904;28;20453;-68
2021/06/12 03:04:37;;;;;;;10.63;9.73;;;;;;;20.68;57.54;96881.53;5043050;28;20456;-67
2021/06/12 03:07:04;;;;;;;12.70;10.13;;;;;;;20.56;57.88;96892.13;5045068;28;20494;-68
2021/06/12 03:09:30;;;;;;;12.30;10.60;;;;;;;20.72;57.25;96888.06;5049515;28;20815;-68
2021/06/12 03:11:56;;;;;;;10.57;9.63;;;;;;;20.45;58.35;96900.84;5047577;28;20421;-68
2021/06/12 03:14:23;;;;;;;13.90;10.30;;;;;;;20.37;58.70;96894.81;5052891;28;20206;-67
2021/06/12 03:16:49;;;;;;;11.70;10.27;;;;;;;20.47;58.49;96890.81;5053484;28;20673;-68
2021/06/12 03:19:15;;;;;;;11.43;10.33;;;;;;;20.37;58.91;96892.16;5054214;28;20460;-68
2021/06/12 03:21:43;;;;;;;13.63;11.10;;;;;;;20.38;58.79;96898.28;5047384;28;20958;-68
2021/06/12 03:24:10;;;;;;;10.40;9.50;;;;;;;20.40;58.69;96891.72;5048837;28;20441;-67
2021/06/12 03:26:36;;;;;;;11.60;10.60;;;;;;;20.44;58.49;96894.75;5053843;28;20422;-68
2021/06/12 03:29:03;;;;;;;10.80;9.90;;;;;;;20.50;58.34;96895.69;5047714;28;20433;-67
2021/06/12 03:31:29;;;;;;;10.37;9.47;;;;;;;20.56;58.23;96898.28;5039447;28;20465;-68
2021/06/12 03:33:55;;;;;;;11.57;10.47;;;;;;;20.40;58.67;96898.88;5048675;28;20574;-67
2021/06/12 03:36:22;;;;;;;10.53;9.60;;;;;;;20.60;58.11;96895.97;5053032;28;20432;-69
2021/06/12 03:38:48;;;;;;;10.47;9.57;;;;;;;20.70;57.79;96890.13;5053058;28;20416;-68
2021/06/12 03:41:14;;;;;;;10.07;9.17;;;;;;;20.81;57.16;96893.88;5053079;28;20828;-67
2021/06/12 03:43:40;;;;;;;10.00;9.20;;;;;;;20.81;57.39;96896.53;5040538;28;20464;-68
2021/06/12 03:46:07;;;;;;;10.30;9.40;;;;;;;20.89;56.97;96888.25;5055549;28;20214;-67
2021/06/12 03:48:32;;;;;;;10.97;9.97;;;;;;;20.87;57.02;96900.97;5052865;28;20429;-67
2021/06/12 03:50:58;;;;;;;11.70;10.53;;;;;;;20.89;57.01;96901.56;5054478;28;20614;-67
2021/06/12 03:53:30;;;;;;;10.03;9.17;;;;;;;20.89;56.89;96898.91;5052214;28;20452;-68
2021/06/12 03:55:57;;;;;;;10.63;9.67;;;;;;;20.90;56.88;96905.88;5036645;28;20429;-67
2021/06/12 03:58:23;;;;;;;11.87;10.67;;;;;;;20.90;57.10;96897.88;5052172;28;20417;-68
2021/06/12 04:00:48;;;;;;;11.40;10.40;;;;;;;20.87;57.16;96903.66;5053472;28;20414;-68
2021/06/12 04:03:14;;;;;;;12.93;10.10;;;;;;;20.76;57.50;96904.41;5036289;28;20190;-66
2021/06/12 04:05:40;;;;;;;11.80;10.80;;;;;;;20.70;57.33;96912.22;5052371;28;20740;-68
2021/06/12 04:08:05;;;;;;;11.10;10.10;;;;;;;20.77;57.27;96906.84;5053476;28;20187;-68
2021/06/12 04:10:31;;;;;;;11.20;10.10;;;;;;;20.87;57.16;96906.31;5053491;28;20219;-67
2021/06/12 04:12:56;;;;;;;11.67;10.47;;;;;;;20.90;57.14;96908.53;5053895;28;20317;-68
2021/06/12 04:15:22;;;;;;;10.90;9.80;;;;;;;20.93;56.99;96902.72;5051809;28;20199;-67
2021/06/12 04:17:50;;;;;;;10.20;9.20;;;;;;;20.99;56.78;96909.00;5052321;28;20179;-67
2021/06/12 04:20:16;;;;;;;10.47;9.50;;;;;;;20.99;56.79;96915.16;5053403;28;20672;-68
2021/06/12 04:22:42;;;;;;;11.17;9.77;;;;;;;21.04;56.57;96917.13;5049417;28;20406;-69
2021/06/12 04:25:08;;;;;;;10.30;9.37;;;;;;;20.97;56.90;96917.22;5052066;28;20256;-68
2021/06/12 04:27:34;;;;;;;12.37;10.10;;;;;;;20.91;57.20;96915.47;5052262;28;20253;-68
2021/06/12 04:30:00;;;;;;;11.07;9.97;;;;;;;20.80;57.91;96914.38;5053248;28;20507;-68
2021/06/12 04:32:26;;;;;;;11.30;10.30;;;;;;;20.87;57.72;96917.75;5037818;28;20179;-68
2021/06/12 04:34:51;;;;;;;10.97;9.77;;;;;;;20.97;57.23;96911.91;5052212;28;20448;-68
2021/06/12 04:37:17;;;;;;;12.80;11.47;;;;;;;21.08;57.36;96913.00;5051615;28;20190;-68
2021/06/12 04:39:43;;;;;;;12.00;10.67;;;;;;;21.14;57.43;96911.28;5053194;28;20898;-68
2021/06/12 04:42:09;;;;;;;12.20;10.30;;;;;;;21.25;57.37;96914.97;5052830;28;20190;-68
2021/06/12 04:44:35;;;;;;;11.67;10.63;;;;;;;21.25;57.55;96923.81;5050389;28;20203;-68
2021/06/12 04:47:01;;;;;;;13.17;10.23;;;;;;;21.28;56.93;96922.53;5052955;28;20277;-68
2021/06/12 04:49:27;;;;;;;11.70;10.60;;;;;;;21.36;56.76;96929.38;5052901;28;20480;-68
2021/06/12 04:51:53;;;;;;;10.53;9.50;;;;;;;21.39;56.54;96926.28;5052785;28;20822;-68
2021/06/12 04:54:19;;;;;;;10.23;9.37;;;;;;;21.55;56.07;96922.13;5050749;28;20286;-68
2021/06/12 04:56:44;;;;;;;12.07;8.63;;;;;;;21.73;55.33;96919.41;5052624;28;20637;-68
2021/06/12 04:59:10;;;;;;;9.93;9.10;;;;;;;21.89;55.25;96909.91;5051080;28;20175;-69
2021/06/12 05:01:35;;;;;;;10.07;9.10;;;;;;;22.07;54.75;96913.47;5042491;28;20176;-69
2021/06/12 05:04:01;;;;;;;9.30;8.40;;;;;;;22.19;54.29;96922.28;5044612;28;20199;-68
2021/06/12 05:06:26;;;;;;;12.60;9.50;;;;;;;22.35;54.16;96917.25;5051080;28;20174;-68
2021/06/12 05:08:52;;;;;;;8.77;8.03;;;;;;;22.51;54.00;96923.75;5052440;28;20187;-68
2021/06/12 05:11:18;;;;;;;9.23;8.53;;;;;;;22.72;53.38;96924.97;5052385;28;20557;-68
2021/06/12 05:13:43;;;;;;;8.87;8.10;;;;;;;22.90;53.17;96921.31;5051666;28;20206;-67
2021/06/12 05:16:09;;;;;;;9.67;8.93;;;;;;;23.07;52.50;96926.69;5033957;28;20178;-67
2021/06/12 05:18:42;;;;;;;10.40;8.90;;;;;;;23.22;51.80;96925.38;5052505;28;20169;-67
2021/06/12 05:21:08;;;;;;;9.30;8.47;;;;;;;23.40;51.31;96917.16;5047889;28;20175;-68
2021/06/12 05:23:34;;;;;;;11.70;7.77;;;;;;;23.57;50.75;96929.69;5051970;28;20805;-68
2021/06/12 05:26:03;;;;;;;9.07;8.17;;;;;;;23.69;50.40;96924.28;5052713;28;20434;-67
2021/06/12 05:28:28;;;;;;;12.63;9.03;;;;;;;23.82;49.94;96923.16;5039992;28;21045;-68
2021/06/12 05:30:54;;;;;;;9.17;8.10;;;;;;;23.97;49.60;96918.03;5050588;28;20540;-68
2021/06/12 05:33:24;;;;;;;9.00;8.10;;;;;;;24.11;49.57;96918.53;5032150;28;20214;-67
2021/06/12 05:35:50;;;;;;;8.63;7.97;;;;;;;24.26;48.90;96919.78;5051406;28;20492;-68
2021/06/12 05:38:16;;;;;;;8.90;8.20;;;;;;;24.39;49.00;96920.22;5050673;28;20414;-67
2021/06/12 05:40:43;;;;;;;8.57;7.90;;;;;;;24.54;48.67;96918.81;5051428;28;20422;-67
2021/06/12 05:43:08;;;;;;;8.50;7.80;;;;;;;24.63;48.99;96919.97;5047177;28;20563;-68
2021/06/12 05:45:34;;;;;;;7.80;7.10;;;;;;;24.77;48.43;96911.59;5044310;28;20409;-67
2021/06/12 05:48:00;;;;;;;8.57;7.37;;;;;;;24.88;47.91;96909.84;5052102;28;20186;-68
2021/06/12 05:50:26;;;;;;;11.63;7.33;;;;;;;24.91;48.10;96907.47;5050112;28;20241;-67
2021/06/12 05:52:52;;;;;;;11.90;7.50;;;;;;;24.82;48.16;96907.09;5051557;28;20418;-67
2021/06/12 05:55:17;;;;;;;8.03;7.33;;;;;;;24.90;48.41;96911.19;5051569;28;20207;-67
2021/06/12 05:57:43;;;;;;;7.20;6.60;;;;;;;24.84;48.43;96912.19;5051532;28;20650;-67
2021/06/12 06:00:10;;;;;;;8.30;7.50;;;;;;;25.11;47.70;96919.44;5043470;28;20682;-68
2021/06/12 06:02:35;;;;;;;7.63;6.83;;;;;;;25.32;47.37;96912.41;5055698;28;20175;-68
2021/06/12 06:05:01;;;;;;;8.27;7.47;;;;;;;25.21;47.40;96910.69;5054659;28;20434;-68
2021/06/12 06:07:27;;;;;;;7.70;7.00;;;;;;;25.52;46.71;96917.16;5044942;28;20258;-67
2021/06/12 06:09:53;;;;;;;7.90;7.20;;;;;;;25.70;46.35;96912.47;5050881;28;20968;-67
2021/06/12 06:12:18;;;;;;;7.10;6.50;;;;;;;25.83;46.03;96914.72;5051956;28;20185;-67
2021/06/12 06:14:44;;;;;;;6.63;6.13;;;;;;;26.00;45.21;96903.00;5038915;28;20199;-66
2021/06/12 06:17:09;;;;;;;6.77;6.17;;;;;;;25.77;44.70;96915.72;5052631;28;20179;-67
2021/06/12 06:19:35;;;;;;;7.23;6.53;;;;;;;26.14;43.83;96912.25;5050351;28;20175;-67
2021/06/12 06:22:00;;;;;;;7.80;7.10;;;;;;;26.48;43.35;96916.44;5047322;28;20183;-68
2021/06/12 06:24:26;;;;;;;6.60;6.00;;;;;;;26.51;42.82;96919.41;5051213;28;20249;-66
2021/06/12 06:26:51;;;;;;;6.90;6.20;;;;;;;26.55;42.88;96913.50;5051299;28;20270;-68
2021/06/12 06:29:17;;;;;;;10.10;5.80;;;;;;;26.95;42.43;96912.06;5050275;28;20844;-68
2021/06/12 06:31:45;;;;;;;7.20;5.70;;;;;;;26.55;42.62;96919.69;5051359;28;20181;-69
2021/06/12 06:34:11;;;;;;;6.43;5.73;;;;;;;26.03;43.51;96914.00;5050642;28;20194;-68
2021/06/12 06:36:38;;;;;;;6.67;6.07;;;;;;;26.46;42.58;96918.56;5051576;28;20418;-68
2021/06/12 06:39:03;;;;;;;7.53;5.70;;;;;;;26.70;42.32;96910.88;5049759;28;20457;-68
2021/06/12 06:41:29;;;;;;;6.57;5.40;;;;;;;27.10;41.71;96909.38;5042454;28;20426;-67
2021/06/12 06:43:54;;;;;;;5.73;5.30;;;;;;;26.96;41.32;96919.06;5038967;28;20569;-67
2021/06/12 06:46:20;;;;;;;6.83;5.30;;;;;;;27.40;40.85;96910.50;5049279;28;20225;-68
2021/06/12 06:48:46;;;;;;;7.33;5.63;;;;;;;26.43;42.59;96922.59;5053300;28;20653;-68
2021/06/12 06:51:11;;;;;;;10.00;6.10;;;;;;;26.70;42.45;96924.31;5054286;28;20206;-69
2021/06/12 06:53:37;;;;;;;6.57;5.90;;;;;;;26.69;43.17;96933.44;5055125;28;20215;-68
2021/06/12 06:56:04;;;;;;;6.80;5.63;;;;;;;26.61;43.18;96929.38;5053478;28;20174;-68
2021/06/12 06:58:30;;;;;;;6.37;5.77;;;;;;;26.63;43.30;96934.50;5054569;28;20171;-68
2021/06/12 07:00:56;;;;;;;6.10;5.60;;;;;;;27.07;42.37;96927.91;5055137;28;20413;-68
2021/06/12 07:03:22;;;;;;;5.10;4.70;;;;;;;27.37;41.88;96921.78;5053006;28;20475;-68
2021/06/12 07:05:47;;;;;;;6.70;4.80;;;;;;;27.82;41.01;96919.38;5053707;28;20174;-68
2021/06/12 07:08:13;;;;;;;8.43;4.93;;;;;;;27.23;42.29;96926.06;5052901;28;20527;-67
2021/06/12 07:10:39;;;;;;;7.70;5.57;;;;;;;27.73;41.75;96929.09;5048787;28;20210;-67
2021/06/12 07:13:05;;;;;;;4.93;4.57;;;;;;;27.62;41.64;96928.28;5055500;28;20426;-67
2021/06/12 07:15:31;;;;;;;5.20;4.80;;;;;;;27.81;41.37;96927.72;5041620;28;20175;-68
2021/06/12 07:17:56;;;;;;;5.33;4.87;;;;;;;28.14;40.76;96929.06;5037117;28;20236;-67
2021/06/12 07:20:23;;;;;;;5.17;4.67;;;;;;;28.34;40.24;96928.19;5054630;28;20413;-67
2021/06/12 07:22:48;;;;;;;5.57;5.00;;;;;;;28.44;40.71;96923.84;5050856;28;20376;-67
2021/06/12 07:25:14;;;;;;;9.00;4.50;;;;;;;28.43;40.74;96933.00;5053147;28;20517;-67
2021/06/12 07:27:40;;;;;;;5.10;4.70;;;;;;;28.19;40.86;96933.63;5054426;28;20182;-67
2021/06/12 07:30:06;;;;;;;5.17;4.70;;;;;;;28.44;40.60;96934.63;5054350;28;20203;-67
2021/06/12 07:32:32;;;;;;;5.00;4.60;;;;;;;28.14;40.60;96936.31;5052941;28;20205;-68
2021/06/12 07:34:57;;;;;;;10.00;4.70;;;;;;;27.73;41.58;96926.38;5054182;28;20434;-68
2021/06/12 07:37:23;;;;;;;4.57;3.90;;;;;;;28.01;40.86;96929.59;5047832;28;20209;-67
2021/06/12 07:39:49;;;;;;;4.50;4.10;;;;;;;28.30;40.18;96929.00;5054167;28;20194;-67
2021/06/12 07:42:14;;;;;;;4.83;4.07;;;;;;;28.36;39.38;96931.41;5053217;28;20185;-67
2021/06/12 07:44:40;;;;;;;4.10;3.70;;;;;;;28.57;39.35;96917.06;5038121;28;20536;-67
2021/06/12 07:47:06;;;;;;;3.60;3.30;;;;;;;28.32;39.27;96930.34;5052232;28;20187;-67
2021/06/12 07:49:31;;;;;;;4.30;3.83;;;;;;;28.32;38.88;96932.22;5051497;28;20175;-67
2021/06/12 07:51:57;;;;;;;3.50;3.20;;;;;;;28.40;39.35;96922.78;5052769;28;20213;-70
2021/06/12 07:54:23;;;;;;;3.90;3.50;;;;;;;28.89;38.73;96922.03;5052459;28;20194;-67
2021/06/12 07:56:49;;;;;;;4.77;4.20;;;;;;;29.48;37.08;96927.66;5050461;28;20180;-67
2021/06/12 07:59:14;;;;;;;6.73;3.30;;;;;;;29.42;36.84;96931.44;5053101;28;20554;-69
2021/06/12 08:01:40;;;;;;;7.20;3.10;;;;;;;28.84;37.83;96924.78;5051598;28;20179;-68
2021/06/12 08:04:06;;;;;;;6.33;2.83;;;;;;;28.80;37.38;96927.22;5051047;28;20199;-68
2021/06/12 08:06:32;;;;;;;3.60;3.27;;;;;;;28.58;38.03;96924.88;5052475;28;20179;-66
2021/06/12 08:08:58;;;;;;;3.93;3.40;;;;;;;28.94;37.17;96927.41;5052770;28;20255;-67
2021/06/12 08:11:23;;;;;;;3.43;3.13;;;;;;;29.16;36.55;96923.50;5049216;28;20500;-67
2021/06/12 08:13:49;;;;;;;3.13;2.93;;;;;;;29.28;36.57;96926.66;5036157;28;20201;-67
2021/06/12 08:16:15;;;;;;;4.00;3.20;;;;;;;28.42;37.30;96917.94;5048512;28;20183;-67
2021/06/12 08:18:40;;;;;;;4.40;3.40;;;;;;;28.94;37.07;96916.63;5053055;28;20183;-67
2021/06/12 08:21:06;;;;;;;3.73;3.30;;;;;;;28.49;37.39;96924.63;5048406;28;20206;-68
2021/06/12 08:23:32;;;;;;;3.57;3.07;;;;;;;28.61;36.64;96918.91;5043044;28;20601;-68
2021/06/12 08:25:57;;;;;;;3.70;3.40;;;;;;;28.27;37.89;96924.97;5052454;28;20726;-67
2021/06/12 08:28:23;;;;;;;3.43;3.10;;;;;;;28.61;36.77;96926.22;5052330;28;20194;-68
2021/06/12 08:30:49;;;;;;;4.00;3.27;;;;;;;28.38;37.71;96931.16;5051920;28;20515;-67
2021/06/12 08:33:14;;;;;;;4.33;3.93;;;;;;;28.83;37.28;96925.88;5050901;28;20186;-68
2021/06/12 08:35:40;;;;;;;3.50;3.20;;;;;;;28.63;38.00;96927.53;5052330;28;20183;-67
2021/06/12 08:38:07;;;;;;;5.93;3.17;;;;;;;28.61;36.85;96920.81;5051510;28;20186;-68
2021/06/12 08:40:33;;;;;;;3.93;2.83;;;;;;;28.39;36.99;96923.84;5046680;28;127203;-68
2021/06/12 08:42:59;;;;;;;3.30;3.10;;;;;;;28.13;36.54;96929.31;5051877;28;20434;-68
2021/06/12 08:45:28;;;;;;;4.20;3.20;;;;;;;28.00;36.94;96938.75;5035604;28;20207;-67
2021/06/12 08:47:57;;;;;;;4.97;4.47;;;;;;;28.15;36.62;96930.69;5023220;28;20626;-68
2021/06/12 08:50:24;;;;;;;5.77;3.10;;;;;;;28.50;36.08;96925.44;5052487;28;20476;-67
2021/06/12 08:52:51;;;;;;;3.27;3.07;;;;;;;28.44;36.26;96921.16;5051789;28;20432;-68
2021/06/12 08:55:17;;;;;;;3.93;3.53;;;;;;;28.78;35.96;96925.88;5051970;28;20452;-66
2021/06/12 08:57:43;;;;;;;3.27;3.03;;;;;;;28.66;35.66;96929.69;5051471;28;20916;-67
2021/06/12 09:00:10;;;;;;;3.13;2.83;;;;;;;28.95;35.06;96929.03;5051289;28;20432;-68
2021/06/12 09:03:04;;;;;;;3.90;3.03;;;;;;;29.04;34.61;96914.97;5042972;28;20183;-68
2021/06/12 09:05:40;;;;;;;3.80;2.70;;;;;;;28.96;39.73;96933.34;5037710;28;20417;-68
2021/06/12 09:08:07;;;;;;;4.97;4.57;;;;;;;28.62;42.35;96931.31;5052934;28;20433;-67
2021/06/12 09:10:33;;;;;;;5.40;4.90;;;;;;;29.27;41.41;96929.66;5052072;28;20476;-68
2021/06/12 09:13:01;;;;;;;4.90;4.40;;;;;;;28.11;44.06;96931.47;5034218;28;20421;-72
2021/06/12 09:15:27;;;;;;;7.93;4.53;;;;;;;28.65;43.26;96936.16;5033922;28;20445;-68
2021/06/12 09:17:53;;;;;;;7.53;4.60;;;;;;;28.34;43.68;96938.97;5049281;28;20899;-67
2021/06/12 09:20:28;;;;;;;4.33;2.93;;;;;;;28.83;40.43;96936.66;5051052;28;20414;-69
2021/06/12 09:23:15;;;;;;;2.70;2.50;;;;;;;29.35;37.76;96934.47;5048994;28;20436;-68
2021/06/12 09:25:46;;;;;;;3.80;2.20;;;;;;;29.12;37.53;96934.06;5041077;28;20475;-67
2021/06/12 09:28:12;;;;;;;3.40;2.83;;;;;;;29.17;37.93;96935.13;5052650;28;20916;-69
2021/06/12 09:30:38;;;;;;;3.10;2.80;;;;;;;28.45;39.63;96947.81;5051923;28;20540;-67
2021/06/12 09:33:04;;;;;;;2.50;2.30;;;;;;;28.41;39.29;96945.94;5033361;28;20993;-67
2021/06/12 09:35:35;;;;;;;3.33;2.47;;;;;;;28.45;38.20;96944.31;5051688;28;20203;-67
2021/06/12 09:38:01;;;;;;;3.03;2.50;;;;;;;28.23;39.79;96945.44;5051120;28;20628;-68
2021/06/12 09:40:32;;;;;;;4.77;3.07;;;;;;;28.44;39.05;96946.19;5038562;28;20436;-68
2021/06/12 09:43:00;;;;;;;5.50;2.00;;;;;;;28.32;39.63;96943.00;5036379;28;20432;-69
2021/06/12 09:45:28;;;;;;;2.43;2.23;;;;;;;28.14;40.28;96939.00;5038057;28;21065;-67
2021/06/12 09:48:20;;;;;;;4.13;2.87;;;;;;;28.58;39.08;96941.06;5050646;28;20429;-69
2021/06/12 09:50:47;;;;;;;7.57;2.23;;;;;;;28.85;38.43;96933.66;5038711;28;20461;-68
2021/06/12 09:53:20;;;;;;;2.70;2.50;;;;;;;29.10;37.26;96932.72;5048389;28;20483;-67
2021/06/12 09:55:46;;;;;;;3.50;2.50;;;;;;;28.99;38.11;96939.25;5033517;28;20434;-69
2021/06/12 09:58:13;;;;;;;2.43;2.30;;;;;;;28.71;38.50;96938.84;5049138;28;20417;-67
2021/06/12 10:00:47;;;;;;;2.87;2.40;;;;;;;29.12;38.14;96933.25;5052825;28;20551;-66
2021/06/12 10:03:26;;;;;;;3.13;2.90;;;;;;;29.25;36.75;96927.22;5050037;28;20430;-68
2021/06/12 10:06:14;;;;;;;2.73;2.47;;;;;;;29.38;36.39;96938.50;5050596;28;20449;-67
2021/06/12 10:08:42;;;;;;;6.90;2.50;;;;;;;29.10;35.81;96936.22;5037429;28;20425;-67
2021/06/12 10:11:08;;;;;;;3.73;2.67;;;;;;;28.64;37.03;96933.75;5050164;28;20465;-68
2021/06/12 10:13:34;;;;;;;2.57;2.37;;;;;;;29.23;36.27;96934.00;5044208;28;20985;-67
2021/06/12 10:16:01;;;;;;;5.33;2.63;;;;;;;28.71;36.59;96933.44;5043858;28;20425;-68
2021/06/12 10:18:26;;;;;;;3.43;2.50;;;;;;;29.42;36.30;96931.44;5050011;28;20261;-69
2021/06/12 10:20:53;;;;;;;2.90;2.70;;;;;;;29.04;36.39;96921.19;5048090;28;20960;-67
2021/06/12 10:23:19;;;;;;;2.70;2.10;;;;;;;29.55;34.66;96928.13;5049327;28;20183;-68
2021/06/12 10:25:45;;;;;;;4.53;2.43;;;;;;;29.75;35.15;96939.03;5050386;28;20997;-67
2021/06/12 10:28:11;;;;;;;2.60;2.40;;;;;;;30.10;34.73;96935.22;5050518;28;20649;-69
2021/06/12 10:30:37;;;;;;;2.47;2.27;;;;;;;29.06;35.30;96935.16;5044846;28;20458;-69
2021/06/12 10:33:04;;;;;;;3.67;2.97;;;;;;;29.26;35.90;96928.84;5039655;28;20437;-68
2021/06/12 10:35:30;;;;;;;4.73;2.83;;;;;;;29.59;35.08;96936.44;5020861;28;20467;-68
2021/06/12 10:38:22;;;;;;;5.83;2.40;;;;;;;29.45;35.59;96933.59;5028211;28;20461;-68
2021/06/12 10:40:53;;;;;;;4.17;2.80;;;;;;;29.35;34.89;96930.97;5051491;28;20650;-68
2021/06/12 10:43:18;;;;;;;3.00;2.30;;;;;;;29.37;34.53;96928.78;5048539;28;20478;-68
2021/06/12 10:45:46;;;;;;;2.60;2.40;;;;;;;30.05;33.64;96920.97;5039401;28;20513;-69
2021/06/12 10:48:49;;;;;;;5.10;2.50;;;;;;;29.52;34.24;96917.09;5049604;28;20642;-69
2021/06/12 10:51:35;;;;;;;2.90;2.70;;;;;;;29.35;35.52;96915.59;5049393;28;21003;-68
2021/06/12 10:54:19;;;;;;;3.47;2.23;;;;;;;29.52;35.17;96930.56;5045887;28;20450;-68
2021/06/12 10:57:16;;;;;;;2.97;2.77;;;;;;;30.56;33.79;96920.38;5041999;28;20448;-68
2021/06/12 10:59:45;;;;;;;2.90;2.70;;;;;;;31.00;31.85;96907.63;5051128;28;20433;-67
2021/06/12 11:05:01;;;;;;;3.60;2.60;;;;;;;30.89;31.04;96915.09;5049497;28;20513;-68
2021/06/12 11:07:43;;;;;;;2.30;2.10;;;;;;;31.23;30.08;96905.19;5036561;28;20422;-68
2021/06/12 11:10:18;;;;;;;5.17;2.50;;;;;;;30.88;31.97;96910.78;5052243;28;20987;-69
2021/06/12 11:12:56;;;;;;;2.70;2.40;;;;;;;30.55;32.82;96902.59;5052501;28;20908;-67
2021/06/12 11:15:21;;;;;;;2.60;2.40;;;;;;;31.16;31.91;96899.34;5036776;28;20488;-68
2021/06/12 11:18:09;;;;;;;9.07;5.50;;;;;;;31.88;29.53;96890.06;5051313;28;20425;-67
2021/06/12 11:20:35;;;;;;;4.57;2.50;;;;;;;31.00;31.70;96913.03;5038905;28;20207;-68
2021/06/12 11:23:03;;;;;;;3.70;2.50;;;;;;;30.62;32.31;96905.72;5052613;28;20457;-69
2021/06/12 11:25:29;;;;;;;5.00;2.33;;;;;;;30.56;32.56;96908.78;5049246;28;20226;-69
2021/06/12 11:28:16;;;;;;;2.70;2.13;;;;;;;30.47;32.69;96901.28;5052118;28;20453;-68
2021/06/12 11:30:42;;;;;;;2.73;2.20;;;;;;;30.98;31.38;96903.63;5053235;28;20590;-70
2021/06/12 11:33:12;;;;;;;2.50;2.33;;;;;;;31.81;30.58;96892.34;5052486;28;20433;-70
2021/06/12 11:35:37;;;;;;;3.10;2.00;;;;;;;31.14;30.62;96901.53;5053105;28;20194;-70